Station History

Weather Underground - logo

Station Historical Data
Daily Summary for December 4, 2017 Units:  Metric    English   Both
« Previous Day
Next Day »
Daily Weekly Monthly Yearly Custom
  High: Low: Average:
Temperature: 13.7 °C 2.7 °C 7.4 °C
Dew Point: 5.9 °C 1.4 °C 3.7 °C
Humidity: 91 % 56 % 79 %
Wind Speed: 9.3 km/h 0 km/h 1.1 km/h
Wind Gust: 9.3 km/h - -
Wind:- - WSW
Pressure: 1023.2 hPa 1018.5 hPa -
Precipitation: 0 mm    
Historical Graphs
 
 
Tabular Data for December 4, 2017
Time Temperature Dew Point Pressure Wind Wind Speed Wind Gust Humidity Rainfall Rate (Hourly)
00:03 5 °C 3.2 °C 1020.9 hPa Calm     88 % 0 mm
00:08 4.9 °C 2.9 °C 1020.9 hPa Calm     87 % 0 mm
00:13 4.8 °C 3 °C 1020.9 hPa Calm     88 % 0 mm
00:18 4.8 °C 2.9 °C 1020.9 hPa Calm     88 % 0 mm
00:23 4.7 °C 2.9 °C 1020.9 hPa Calm     88 % 0 mm
00:28 4.6 °C 2.8 °C 1020.9 hPa Calm     88 % 0 mm
00:33 4.4 °C 2.6 °C 1020.9 hPa Calm     88 % 0 mm
00:38 4.4 °C 2.8 °C 1020.9 hPa Calm     89 % 0 mm
00:43 4.5 °C 3 °C 1020.9 hPa Calm     90 % 0 mm
00:48 4.5 °C 3 °C 1020.9 hPa Calm     90 % 0 mm
00:53 4.5 °C 3 °C 1020.9 hPa Calm     90 % 0 mm
00:58 4.5 °C 3 °C 1020.9 hPa Calm     90 % 0 mm
01:03 4.4 °C 2.9 °C 1020.9 hPa Calm     90 % 0 mm
01:08 4.4 °C 2.9 °C 1020.9 hPa Calm     90 % 0 mm
01:13 4.3 °C 2.8 °C 1021.2 hPa Calm     90 % 0 mm
01:18 4.2 °C 2.7 °C 1021.2 hPa Calm     90 % 0 mm
01:23 4.2 °C 2.7 °C 1021.2 hPa Calm     90 % 0 mm
01:28 4.2 °C 2.7 °C 1021.2 hPa Calm     90 % 0 mm
01:33 4.2 °C 2.7 °C 1021.2 hPa Calm     90 % 0 mm
01:38 4.3 °C 2.8 °C 1021.2 hPa Calm     90 % 0 mm
01:43 4.3 °C 2.8 °C 1021.2 hPa Calm     90 % 0 mm
01:48 4.3 °C 2.8 °C 1021.2 hPa Calm     90 % 0 mm
01:53 4.2 °C 2.7 °C 1021.6 hPa Calm     90 % 0 mm
01:58 4.2 °C 2.7 °C 1021.6 hPa Calm     90 % 0 mm
02:03 4.2 °C 2.7 °C 1021.6 hPa Calm     90 % 0 mm
02:08 4.1 °C 2.6 °C 1021.6 hPa Calm     90 % 0 mm
02:13 4.2 °C 2.7 °C 1021.6 hPa Calm     90 % 0 mm
02:19 4.3 °C 2.9 °C 1021.6 hPa Calm     91 % 0 mm
02:24 4.3 °C 2.8 °C 1021.6 hPa SE 1.9 km/h   90 % 0 mm
02:29 4.3 °C 2.8 °C 1021.6 hPa Calm     90 % 0 mm
02:34 4.4 °C 2.9 °C 1021.6 hPa Calm     90 % 0 mm
02:39 4.4 °C 3.1 °C 1021.6 hPa Calm     91 % 0 mm
02:44 4.4 °C 3.1 °C 1021.2 hPa Calm     91 % 0 mm
02:49 4.4 °C 3.1 °C 1021.2 hPa SE 1.6 km/h   91 % 0 mm
02:54 4.5 °C 3 °C 1021.2 hPa Calm     90 % 0 mm
02:59 4.6 °C 3.3 °C 1021.2 hPa Calm     91 % 0 mm
03:04 4.7 °C 3.4 °C 1021.2 hPa Calm     91 % 0 mm
03:09 4.8 °C 3.3 °C 1021.2 hPa SE 1.9 km/h   90 % 0 mm
03:14 4.9 °C 3.4 °C 1021.2 hPa Calm     90 % 0 mm
03:19 4.9 °C 3.4 °C 1021.2 hPa Calm     90 % 0 mm
03:24 4.9 °C 3.4 °C 1021.2 hPa Calm     90 % 0 mm
03:29 5 °C 3.5 °C 1021.2 hPa Calm     90 % 0 mm
03:34 5 °C 3.5 °C 1020.9 hPa Calm     90 % 0 mm
03:39 4.9 °C 3.4 °C 1020.9 hPa Calm     90 % 0 mm
03:41 4.9 °C 3.4 °C 1020.9 hPa SE 1.9 km/h 1.9 km/h 90 % 0 mm
03:46 4.9 °C 3.3 °C 1020.9 hPa Calm     89 % 0 mm
03:51 5 °C 3.3 °C 1020.9 hPa Calm     89 % 0 mm
03:56 5.1 °C 3.4 °C 1020.9 hPa Calm     89 % 0 mm
04:01 5.1 °C 3.4 °C 1020.9 hPa Calm     89 % 0 mm
04:06 5 °C 3.3 °C 1020.9 hPa Calm     89 % 0 mm
04:08 5.1 °C 3.4 °C 1020.9 hPa Calm     89 % 0 mm
04:13 5 °C 3.3 °C 1020.5 hPa Calm     89 % 0 mm
04:18 4.9 °C 3.2 °C 1020.5 hPa Calm     89 % 0 mm
04:23 4.7 °C 3 °C 1020.5 hPa Calm     89 % 0 mm
04:24 4.6 °C 2.9 °C 1020.5 hPa Calm     89 % 0 mm
04:29 4.3 °C 2.8 °C 1020.5 hPa Calm     90 % 0 mm
04:34 4.2 °C 2.7 °C 1020.5 hPa Calm     90 % 0 mm
04:39 4.1 °C 2.7 °C 1020.5 hPa Calm     91 % 0 mm
04:44 3.9 °C 2.6 °C 1020.5 hPa Calm     91 % 0 mm
04:49 3.9 °C 2.6 °C 1020.5 hPa SE 1.6 km/h   91 % 0 mm
04:54 3.8 °C 2.5 °C 1020.5 hPa Calm     91 % 0 mm
04:59 3.7 °C 2.4 °C 1020.5 hPa Calm     91 % 0 mm
05:04 3.6 °C 2.3 °C 1020.5 hPa Calm     91 % 0 mm
05:09 3.6 °C 2.3 °C 1020.5 hPa Calm     91 % 0 mm
05:10 3.6 °C 2.3 °C 1020.5 hPa Calm     91 % 0 mm
05:15 3.6 °C 2.3 °C 1020.9 hPa Calm     91 % 0 mm
05:20 3.6 °C 2.3 °C 1020.9 hPa Calm     91 % 0 mm
05:26 3.7 °C 2.3 °C 1020.9 hPa Calm   0.3 km/h 91 % 0 mm
05:31 3.7 °C 2.3 °C 1020.9 hPa Calm     91 % 0 mm
05:36 3.6 °C 2.3 °C 1020.9 hPa ESE 1.9 km/h   91 % 0 mm
05:41 3.6 °C 2.3 °C 1020.9 hPa Calm     91 % 0 mm
05:46 3.7 °C 2.3 °C 1020.9 hPa Calm     91 % 0 mm
05:51 3.7 °C 2.4 °C 1020.9 hPa Calm     91 % 0 mm
05:56 3.7 °C 2.4 °C 1021.2 hPa Calm     91 % 0 mm
06:01 3.8 °C 2.5 °C 1021.2 hPa Calm     91 % 0 mm
06:06 3.9 °C 2.6 °C 1021.2 hPa Calm     91 % 0 mm
06:11 3.9 °C 2.6 °C 1021.2 hPa Calm     91 % 0 mm
06:16 3.9 °C 2.6 °C 1021.2 hPa Calm     91 % 0 mm
06:22 4 °C 2.7 °C 1021.2 hPa Calm     91 % 0 mm
06:27 3.9 °C 2.4 °C 1021.2 hPa Calm     90 % 0 mm
06:32 3.9 °C 2.4 °C 1021.2 hPa Calm     90 % 0 mm
06:37 3.9 °C 2.4 °C 1021.2 hPa Calm     90 % 0 mm
06:42 3.9 °C 2.4 °C 1021.2 hPa Calm     90 % 0 mm
06:47 3.9 °C 2.4 °C 1021.2 hPa Calm     90 % 0 mm
06:52 3.9 °C 2.4 °C 1021.6 hPa Calm     90 % 0 mm
06:57 3.8 °C 2.3 °C 1021.6 hPa Calm     90 % 0 mm
07:02 3.8 °C 2.3 °C 1021.6 hPa Calm     90 % 0 mm
07:07 3.8 °C 2.3 °C 1021.6 hPa Calm     90 % 0 mm
07:12 3.8 °C 2.3 °C 1021.6 hPa Calm     90 % 0 mm
07:17 3.9 °C 2.4 °C 1021.9 hPa Calm     90 % 0 mm
07:22 4 °C 2.3 °C 1021.9 hPa Calm     89 % 0 mm
07:27 4.1 °C 2.4 °C 1021.9 hPa Calm     89 % 0 mm
07:32 4.2 °C 2.5 °C 1021.9 hPa Calm     89 % 0 mm
07:37 4.3 °C 2.4 °C 1021.9 hPa Calm     88 % 0 mm
07:42 4.5 °C 2.7 °C 1021.9 hPa Calm     88 % 0 mm
07:47 4.8 °C 2.8 °C 1021.9 hPa Calm     87 % 0 mm
07:52 5.2 °C 3.2 °C 1021.9 hPa SE 1.9 km/h 1.9 km/h 87 % 0 mm
07:57 5.4 °C 3.1 °C 1022.2 hPa Calm     85 % 0 mm
08:02 5.5 °C 3.3 °C 1021.9 hPa Calm     86 % 0 mm
08:07 5.6 °C 3.4 °C 1022.2 hPa SSE 3.7 km/h   86 % 0 mm
08:12 5.8 °C 3.4 °C 1021.9 hPa SE 1.9 km/h 1.9 km/h 85 % 0 mm
08:17 5.9 °C 3.4 °C 1021.9 hPa SE 1.9 km/h   84 % 0 mm
08:22 6.1 °C 3.6 °C 1021.9 hPa ESE 1.9 km/h   84 % 0 mm
08:27 6.1 °C 3.6 °C 1021.9 hPa SE 3.7 km/h 3.7 km/h 84 % 0 mm
08:32 6.1 °C 3.6 °C 1021.9 hPa SW 1.9 km/h   84 % 0 mm
08:37 6.2 °C 3.6 °C 1021.9 hPa SE 1.9 km/h 1.9 km/h 83 % 0 mm
08:42 6.3 °C 3.6 °C 1021.9 hPa Calm   0.2 km/h 83 % 0 mm
08:47 6.6 °C 3.9 °C 1021.9 hPa Calm     83 % 0 mm
08:52 6.9 °C 4.1 °C 1021.9 hPa Calm     82 % 0 mm
08:57 7.3 °C 4.1 °C 1021.9 hPa Calm     80 % 0 mm
09:02 7.6 °C 4.2 °C 1021.9 hPa SE 3.7 km/h 3.7 km/h 79 % 0 mm
09:07 7.9 °C 4.3 °C 1021.9 hPa SE 3.7 km/h 3.7 km/h 78 % 0 mm
09:12 8.4 °C 4.6 °C 1021.9 hPa ESE 1.9 km/h 1.9 km/h 77 % 0 mm
09:17 8.7 °C 4.6 °C 1021.9 hPa South 3.7 km/h 3.7 km/h 75 % 0 mm
09:22 9.1 °C 4.7 °C 1021.9 hPa SSE 3.7 km/h   74 % 0 mm
09:27 9.3 °C 4.3 °C 1021.9 hPa NW 1.9 km/h 1.9 km/h 71 % 0 mm
09:32 9.6 °C 4.8 °C 1021.9 hPa SSE 5.6 km/h 5.6 km/h 72 % 0 mm
09:37 9.8 °C 4.6 °C 1021.9 hPa South 5.6 km/h 5.6 km/h 70 % 0 mm
09:42 9.6 °C 4.6 °C 1021.9 hPa Calm     71 % 0 mm
09:47 9.4 °C 4.7 °C 1021.9 hPa Calm   0.3 km/h 72 % 0 mm
09:52 9.7 °C 4.9 °C 1021.9 hPa SW 1.9 km/h 1.9 km/h 72 % 0 mm
09:57 9.8 °C 5 °C 1021.9 hPa SSW 1.9 km/h   72 % 0 mm
10:02 10.1 °C 4.8 °C 1021.9 hPa ESE 7.4 km/h 7.4 km/h 70 % 0 mm
10:08 10.3 °C 5.1 °C 1021.6 hPa ENE 5.6 km/h 5.6 km/h 70 % 0 mm
10:13 10.6 °C 5.4 °C 1021.6 hPa South 1.9 km/h 1.9 km/h 70 % 0 mm
10:18 11 °C 5.1 °C 1021.6 hPa South 9.3 km/h 9.3 km/h 67 % 0 mm
10:23 11.1 °C 5.4 °C 1021.6 hPa SSW 3.7 km/h 3.7 km/h 68 % 0 mm
10:28 11.3 °C 5.4 °C 1021.6 hPa SSE 5.6 km/h 5.6 km/h 67 % 0 mm
10:33 11.4 °C 5.5 °C 1021.2 hPa ESE 6.4 km/h 6.4 km/h 67 % 0 mm
10:38 11.6 °C 5.4 °C 1021.2 hPa SE 3.7 km/h 3.7 km/h 66 % 0 mm
10:43 11.8 °C 5.7 °C 1021.2 hPa SSE 7.4 km/h 7.4 km/h 66 % 0 mm
10:48 12.1 °C 5.7 °C 1021.2 hPa NNW 3.7 km/h 3.7 km/h 65 % 0 mm
10:53 11.9 °C 5.3 °C 1021.2 hPa WSW 3.7 km/h 3.7 km/h 64 % 0 mm
10:58 11.8 °C 5.6 °C 1021.2 hPa SSW 3.7 km/h 3.7 km/h 66 % 0 mm
11:03 12 °C 5.8 °C 1020.9 hPa ESE 5.6 km/h 5.6 km/h 66 % 0 mm
11:08 12 °C 5.4 °C 1020.9 hPa NW 1.9 km/h 1.9 km/h 64 % 0 mm
11:13 11.9 °C 5.3 °C 1020.9 hPa NW 3.7 km/h 3.7 km/h 64 % 0 mm
11:18 11.9 °C 5.5 °C 1020.5 hPa SSW 1.9 km/h 1.9 km/h 65 % 0 mm
11:23 12 °C 5.4 °C 1020.5 hPa NW 5.6 km/h 5.6 km/h 64 % 0 mm
11:28 11.8 °C 5.4 °C 1020.5 hPa WSW 3.7 km/h 3.7 km/h 65 % 0 mm
11:33 11.7 °C 5.3 °C 1020.2 hPa NW 1.9 km/h 1.9 km/h 65 % 0 mm
11:38 12.1 °C 5.7 °C 1020.2 hPa WNW 3.7 km/h 3.7 km/h 65 % 0 mm
11:43 12.2 °C 5.3 °C 1020.2 hPa North 3.7 km/h 3.7 km/h 63 % 0 mm
11:48 11.9 °C 5.1 °C 1020.2 hPa NNW 1.9 km/h 1.9 km/h 63 % 0 mm
11:53 12.1 °C 5.9 °C 1020.2 hPa Calm     66 % 0 mm
11:58 12.3 °C 5.7 °C 1019.9 hPa NW 5.6 km/h 5.6 km/h 64 % 0 mm
12:03 12.2 °C 5.3 °C 1019.9 hPa NW 5.6 km/h 5.6 km/h 63 % 0 mm
12:08 12.2 °C 5.3 °C 1019.9 hPa WNW 3.7 km/h 3.7 km/h 63 % 0 mm
12:13 12.2 °C 5.3 °C 1019.9 hPa NW 3.7 km/h 3.7 km/h 63 % 0 mm
12:18 12.2 °C 5.3 °C 1019.9 hPa WNW 1.9 km/h 1.9 km/h 63 % 0 mm
12:23 12.3 °C 5.2 °C 1019.9 hPa WNW 3.7 km/h 3.7 km/h 62 % 0 mm
12:28 12.4 °C 5.1 °C 1019.9 hPa NNW 1.9 km/h 1.9 km/h 61 % 0 mm
12:33 12.5 °C 5.2 °C 1019.5 hPa NW 5.6 km/h 5.6 km/h 61 % 0 mm
12:38 12.5 °C 5.2 °C 1019.5 hPa NW 3.7 km/h 3.7 km/h 61 % 0 mm
12:43 12.6 °C 5.3 °C 1019.5 hPa NW 3.7 km/h 3.7 km/h 61 % 0 mm
12:48 12.8 °C 5.2 °C 1019.5 hPa NW 3.7 km/h 3.7 km/h 60 % 0 mm
12:53 12.9 °C 5.1 °C 1019.5 hPa WNW 1.9 km/h 1.9 km/h 59 % 0 mm
12:58 12.8 °C 4.9 °C 1019.5 hPa West 1.9 km/h   59 % 0 mm
13:03 13 °C 4.9 °C 1019.5 hPa NW 3.7 km/h 3.7 km/h 58 % 0 mm
13:08 13.1 °C 5.2 °C 1019.5 hPa North 1.9 km/h 1.9 km/h 59 % 0 mm
13:13 13.4 °C 5.3 °C 1019.5 hPa NW 1.9 km/h 1.9 km/h 58 % 0 mm
13:18 13.3 °C 5.2 °C 1019.2 hPa NW 7.4 km/h 7.4 km/h 58 % 0 mm
13:23 13.2 °C 5.1 °C 1019.2 hPa WNW 3.7 km/h 3.7 km/h 58 % 0 mm
13:28 13.3 °C 4.9 °C 1019.2 hPa South 1.9 km/h   57 % 0 mm
13:33 13.4 °C 5.3 °C 1018.8 hPa Calm   0.2 km/h 58 % 0 mm
13:39 13.6 °C 5.2 °C 1018.8 hPa NW 5.6 km/h 5.6 km/h 57 % 0 mm
13:44 13.4 °C 5.1 °C 1018.8 hPa NW 1.9 km/h 1.9 km/h 57 % 0 mm
13:49 13.6 °C 5.2 °C 1018.8 hPa North 1.9 km/h 1.9 km/h 57 % 0 mm
13:54 13.7 °C 5.1 °C 1018.8 hPa Calm     56 % 0 mm
13:59 13.7 °C 5.1 °C 1018.8 hPa NW 5.6 km/h 5.6 km/h 56 % 0 mm
14:04 13.6 °C 5 °C 1018.8 hPa WSW 3.7 km/h 3.7 km/h 56 % 0 mm
14:09 13.6 °C 4.9 °C 1018.8 hPa NE 3.7 km/h 3.7 km/h 56 % 0 mm
14:14 13.7 °C 5.1 °C 1018.5 hPa NW 3.7 km/h 3.7 km/h 56 % 0 mm
14:19 13.6 °C 4.9 °C 1018.5 hPa NNW 5.6 km/h 5.6 km/h 56 % 0 mm
14:24 13.6 °C 5.2 °C 1018.5 hPa NW 3.7 km/h 3.7 km/h 57 % 0 mm
14:29 13.7 °C 5.3 °C 1018.5 hPa NW 1.9 km/h 1.9 km/h 57 % 0 mm
14:34 13.7 °C 5.3 °C 1018.8 hPa WNW 3.7 km/h 3.7 km/h 57 % 0 mm
14:39 13.7 °C 5.1 °C 1018.8 hPa NW 1.9 km/h   56 % 0 mm
14:44 13.6 °C 5 °C 1018.8 hPa Calm     56 % 0 mm
14:49 13.6 °C 5.2 °C 1018.8 hPa NW 5.6 km/h 5.6 km/h 57 % 0 mm
14:54 13.5 °C 5.2 °C 1018.8 hPa NW 3.7 km/h 3.7 km/h 57 % 0 mm
14:59 13.4 °C 5.1 °C 1018.8 hPa NW 3.7 km/h 3.7 km/h 57 % 0 mm
15:04 13.4 °C 5.1 °C 1018.8 hPa NW 4.8 km/h 4.8 km/h 57 % 0 mm
15:09 13.4 °C 5.3 °C 1019.2 hPa NNW 3.7 km/h 3.7 km/h 58 % 0 mm
15:14 13.4 °C 5.3 °C 1019.2 hPa WSW 1.9 km/h 1.9 km/h 58 % 0 mm
15:19 13.4 °C 5.3 °C 1019.2 hPa NW 3.7 km/h 3.7 km/h 58 % 0 mm
15:24 13.3 °C 5 °C 1019.2 hPa North 5.6 km/h 5.6 km/h 57 % 0 mm
15:29 13.3 °C 5.2 °C 1019.2 hPa Calm     58 % 0 mm
15:34 13.3 °C 4.9 °C 1019.2 hPa NNW 3.2 km/h 3.2 km/h 57 % 0 mm
15:39 13.3 °C 5 °C 1019.2 hPa NW 5.6 km/h 5.6 km/h 57 % 0 mm
15:49 13.2 °C 5.1 °C 1019.2 hPa WNW 3.7 km/h 3.7 km/h 58 % 0 mm
15:54 13.2 °C 5.1 °C 1019.2 hPa NW 3.7 km/h 3.7 km/h 58 % 0 mm
15:59 13.1 °C 5 °C 1019.2 hPa NW 3.2 km/h 3.2 km/h 58 % 0 mm
16:04 13 °C 4.7 °C 1019.2 hPa NW 3.2 km/h 3.2 km/h 57 % 0 mm
16:09 12.9 °C 4.8 °C 1019.2 hPa North 3.7 km/h 3.7 km/h 58 % 0 mm
16:14 12.8 °C 4.9 °C 1019.2 hPa NW 1.9 km/h 1.9 km/h 59 % 0 mm
16:19 12.6 °C 4.8 °C 1019.2 hPa Calm     59 % 0 mm
16:24 12.4 °C 4.8 °C 1019.5 hPa WNW 1.9 km/h 1.9 km/h 60 % 0 mm
16:29 12.2 °C 4.9 °C 1019.5 hPa WNW 1.6 km/h 1.6 km/h 61 % 0 mm
16:34 12 °C 4.7 °C 1019.5 hPa NW 1.9 km/h   61 % 0 mm
16:39 11.9 °C 4.7 °C 1019.5 hPa Calm     61 % 0 mm
16:44 11.8 °C 4.7 °C 1019.5 hPa Calm     62 % 0 mm
16:49 11.5 °C 4.7 °C 1019.5 hPa Calm     63 % 0 mm
16:54 11.3 °C 4.6 °C 1019.5 hPa Calm     63 % 0 mm
16:59 11.1 °C 4.6 °C 1019.5 hPa Calm     64 % 0 mm
17:04 10.8 °C 4.7 °C 1019.5 hPa Calm     66 % 0 mm
17:09 10.4 °C 4.5 °C 1019.5 hPa Calm     67 % 0 mm
17:14 10.1 °C 4.4 °C 1019.5 hPa Calm     68 % 0 mm
17:19 9.8 °C 4.4 °C 1019.5 hPa Calm     69 % 0 mm
17:24 9.8 °C 4.6 °C 1019.5 hPa Calm     70 % 0 mm
17:29 9.6 °C 4.6 °C 1019.9 hPa Calm     71 % 0 mm
17:34 9.4 °C 4.6 °C 1019.9 hPa Calm     72 % 0 mm
17:39 9.1 °C 4.4 °C 1019.9 hPa Calm     73 % 0 mm
17:44 8.8 °C 4.4 °C 1019.9 hPa Calm     74 % 0 mm
17:49 8.6 °C 4.2 °C 1019.9 hPa Calm     74 % 0 mm
17:54 8.3 °C 4.6 °C 1019.9 hPa Calm     77 % 0 mm
17:59 8.2 °C 4.6 °C 1019.9 hPa Calm     78 % 0 mm
18:04 8 °C 4.6 °C 1019.9 hPa Calm     79 % 0 mm
18:09 7.8 °C 4.4 °C 1019.9 hPa Calm     79 % 0 mm
18:14 7.7 °C 4.3 °C 1019.9 hPa Calm     79 % 0 mm
18:19 7.5 °C 4.4 °C 1020.2 hPa Calm     81 % 0 mm
18:23 7.3 °C 4.3 °C 1020.2 hPa Calm     81 % 0 mm
18:28 7.2 °C 4.3 °C 1020.2 hPa Calm     82 % 0 mm
18:33 7.1 °C 4.1 °C 1020.2 hPa Calm     81 % 0 mm
18:38 6.9 °C 4.3 °C 1020.2 hPa Calm     83 % 0 mm
18:43 6.8 °C 4.3 °C 1020.5 hPa Calm     84 % 0 mm
18:48 6.7 °C 4.2 °C 1020.5 hPa Calm     84 % 0 mm
18:53 6.6 °C 4.1 °C 1020.5 hPa Calm     84 % 0 mm
18:59 6.6 °C 4.2 °C 1020.5 hPa Calm     85 % 0 mm
19:04 6.6 °C 4.1 °C 1020.9 hPa Calm     84 % 0 mm
19:09 6.6 °C 4.3 °C 1020.9 hPa Calm     85 % 0 mm
19:14 6.6 °C 4.2 °C 1020.9 hPa Calm     85 % 0 mm
19:19 6.6 °C 4.1 °C 1020.9 hPa Calm     84 % 0 mm
19:22 6.8 °C 4.3 °C 1020.9 hPa Calm     84 % 0 mm
19:27 6.8 °C 4.2 °C 1020.9 hPa Calm     83 % 0 mm
19:32 6.7 °C 4 °C 1020.9 hPa Calm     83 % 0 mm
19:37 6.6 °C 4.1 °C 1020.9 hPa Calm     84 % 0 mm
19:43 6.6 °C 4.1 °C 1020.9 hPa Calm     84 % 0 mm
19:48 6.4 °C 4.1 °C 1020.9 hPa Calm     85 % 0 mm
19:53 6.2 °C 3.9 °C 1020.9 hPa Calm     85 % 0 mm
19:58 5.9 °C 3.6 °C 1020.9 hPa Calm     85 % 0 mm
20:03 5.9 °C 3.8 °C 1020.9 hPa Calm     86 % 0 mm
20:08 5.8 °C 3.7 °C 1021.2 hPa Calm     86 % 0 mm
20:13 5.7 °C 3.7 °C 1021.2 hPa Calm     87 % 0 mm
20:18 5.7 °C 3.7 °C 1021.2 hPa Calm     87 % 0 mm
20:23 5.7 °C 3.5 °C 1021.6 hPa Calm     86 % 0 mm
20:26 5.7 °C 3.6 °C 1021.2 hPa Calm     86 % 0 mm
20:31 5.7 °C 3.7 °C 1021.6 hPa Calm     87 % 0 mm
20:36 5.6 °C 3.6 °C 1021.6 hPa Calm     87 % 0 mm
20:41 5.5 °C 3.5 °C 1021.6 hPa Calm     87 % 0 mm
20:46 5.3 °C 3.3 °C 1021.2 hPa Calm     87 % 0 mm
20:51 5.3 °C 3.3 °C 1021.6 hPa SE 1.9 km/h   87 % 0 mm
20:56 5 °C 2.8 °C 1021.6 hPa Calm     86 % 0 mm
21:01 4.9 °C 2.9 °C 1021.6 hPa Calm     87 % 0 mm
21:12 4.7 °C 2.7 °C 1021.9 hPa East 1.9 km/h   87 % 0 mm
21:17 4.7 °C 2.8 °C 1021.9 hPa Calm     88 % 0 mm
21:22 4.5 °C 2.7 °C 1021.9 hPa Calm     88 % 0 mm
21:27 4.4 °C 2.6 °C 1021.9 hPa Calm     88 % 0 mm
21:32 4.2 °C 2.4 °C 1021.9 hPa Calm     88 % 0 mm
21:37 4.2 °C 2.6 °C 1021.9 hPa Calm     89 % 0 mm
21:42 4.2 °C 2.5 °C 1022.2 hPa Calm     89 % 0 mm
21:47 4.2 °C 2.5 °C 1021.9 hPa Calm     89 % 0 mm
21:52 4.1 °C 2.4 °C 1021.9 hPa Calm     89 % 0 mm
21:57 4.1 °C 2.4 °C 1021.9 hPa Calm     89 % 0 mm
22:02 4 °C 2.3 °C 1021.9 hPa Calm     89 % 0 mm
22:07 4.1 °C 2.6 °C 1021.9 hPa Calm     90 % 0 mm
22:12 4.2 °C 2.7 °C 1022.2 hPa Calm     90 % 0 mm
22:17 4.3 °C 2.7 °C 1021.9 hPa Calm     89 % 0 mm
22:22 4.4 °C 2.8 °C 1021.9 hPa Calm     89 % 0 mm
22:27 4.4 °C 2.6 °C 1021.9 hPa Calm     88 % 0 mm
22:32 4.3 °C 2.5 °C 1021.9 hPa Calm     88 % 0 mm
22:37 4.3 °C 2.5 °C 1021.9 hPa Calm     88 % 0 mm
22:42 4.2 °C 2.3 °C 1021.9 hPa Calm     88 % 0 mm
22:43 4.1 °C 2.3 °C 1022.2 hPa Calm     88 % 0 mm
22:48 3.9 °C 2.2 °C 1022.2 hPa Calm     89 % 0 mm
22:53 3.7 °C 2.1 °C 1022.2 hPa Calm     89 % 0 mm
22:58 3.5 °C 2 °C 1022.2 hPa Calm     90 % 0 mm
23:03 3.4 °C 1.9 °C 1022.2 hPa Calm     90 % 0 mm
23:08 3.3 °C 1.8 °C 1022.6 hPa Calm     90 % 0 mm
23:13 3.3 °C 1.9 °C 1022.6 hPa Calm     91 % 0 mm
23:18 3.3 °C 1.9 °C 1022.6 hPa Calm     91 % 0 mm
23:23 3.2 °C 1.9 °C 1022.9 hPa Calm     91 % 0 mm
23:28 3.1 °C 1.8 °C 1022.6 hPa Calm     91 % 0 mm
23:33 3.1 °C 1.7 °C 1022.9 hPa Calm     91 % 0 mm
23:38 2.9 °C 1.6 °C 1022.9 hPa Calm     91 % 0 mm
23:43 2.9 °C 1.6 °C 1022.9 hPa Calm     91 % 0 mm
23:48 2.8 °C 1.5 °C 1023.2 hPa Calm     91 % 0 mm
23:53 2.8 °C 1.4 °C 1023.2 hPa Calm     91 % 0 mm
23:54 2.7 °C 1.4 °C 1023.2 hPa Calm     91 % 0 mm
Park Place, Exeter, Tulare County, California, USA
Compliments of Weather Underground - 2.75 mb